createdAt,value
2022-10-15T00:00:42.073Z,28.65
2022-10-15T00:03:09.322Z,30.80
2022-10-15T00:05:42.818Z,31.25
2022-10-15T00:08:10.189Z,31.13
2022-10-15T00:10:37.559Z,27.20
2022-10-15T00:13:05.040Z,26.85
2022-10-15T00:15:32.335Z,27.70
2022-10-15T00:17:59.528Z,25.73
2022-10-15T00:20:26.726Z,25.15
2022-10-15T00:22:53.974Z,26.42
2022-10-15T00:25:21.189Z,24.95
2022-10-15T00:27:48.401Z,24.02
2022-10-15T00:30:15.703Z,25.90
2022-10-15T00:32:42.903Z,26.73
2022-10-15T00:35:10.559Z,24.05
2022-10-15T00:37:37.786Z,24.08
2022-10-15T00:40:05.243Z,23.02
2022-10-15T00:42:32.429Z,22.73
2022-10-15T00:44:59.834Z,21.85
2022-10-15T00:47:47.278Z,22.52
2022-10-15T00:50:18.057Z,22.35
2022-10-15T00:52:57.115Z,25.33
2022-10-15T00:55:31.247Z,22.67
2022-10-15T00:58:08.570Z,24.10
2022-10-15T01:00:35.829Z,25.52
2022-10-15T01:03:03.070Z,26.73
2022-10-15T01:05:30.351Z,26.42
2022-10-15T01:07:57.579Z,26.38
2022-10-15T01:10:24.806Z,26.33
2022-10-15T01:12:59.772Z,25.25
2022-10-15T01:15:46.693Z,23.83
2022-10-15T01:18:32.696Z,25.30
2022-10-15T01:21:20.429Z,24.98
2022-10-15T01:23:47.645Z,25.98
2022-10-15T01:26:37.958Z,25.05
2022-10-15T01:29:23.716Z,25.10
2022-10-15T01:31:56.922Z,25.23
2022-10-15T01:34:33.081Z,26.17
2022-10-15T01:37:06.134Z,25.05
2022-10-15T01:39:34.243Z,24.70
2022-10-15T01:42:02.083Z,24.88
2022-10-15T01:44:31.097Z,24.40
2022-10-15T01:47:05.120Z,24.92
2022-10-15T01:49:33.080Z,30.88
2022-10-15T01:52:00.890Z,23.63
2022-10-15T01:54:28.151Z,25.02
2022-10-15T01:56:55.539Z,25.92
2022-10-15T01:59:23.425Z,25.13
2022-10-15T02:01:50.648Z,26.65
2022-10-15T02:04:21.938Z,26.42
2022-10-15T02:06:51.175Z,25.75
2022-10-15T02:09:38.613Z,28.42
2022-10-15T02:12:10.753Z,26.88
2022-10-15T02:15:01.752Z,27.70
2022-10-15T02:17:32.545Z,30.55
2022-10-15T02:20:01.421Z,31.17
2022-10-15T02:22:33.646Z,30.70
2022-10-15T02:25:15.080Z,31.35
2022-10-15T02:27:42.438Z,30.45
2022-10-15T02:30:09.817Z,29.42
2022-10-15T02:32:38.218Z,30.05
2022-10-15T02:35:05.633Z,33.15
2022-10-15T02:37:32.822Z,30.08
2022-10-15T02:40:00.024Z,30.08
2022-10-15T02:42:27.361Z,30.77
2022-10-15T02:44:54.579Z,32.92
2022-10-15T02:47:21.846Z,30.33
2022-10-15T02:49:49.199Z,30.17
2022-10-15T02:52:16.407Z,30.65
2022-10-15T02:54:43.608Z,30.95
2022-10-15T02:57:10.834Z,30.98
2022-10-15T02:59:38.055Z,28.05
2022-10-15T03:02:05.259Z,34.88
2022-10-15T03:04:32.530Z,32.92
2022-10-15T03:06:59.742Z,34.53
2022-10-15T03:09:26.953Z,33.25
2022-10-15T03:11:54.183Z,32.75
2022-10-15T03:14:21.403Z,32.05
2022-10-15T03:16:48.690Z,28.17
2022-10-15T03:19:16.111Z,29.27
2022-10-15T03:21:43.330Z,28.70
2022-10-15T03:24:10.536Z,29.15
2022-10-15T03:26:37.784Z,30.92
2022-10-15T03:29:05.063Z,30.42
2022-10-15T03:31:32.254Z,31.67
2022-10-15T03:33:59.473Z,33.83
2022-10-15T03:36:26.678Z,30.33
2022-10-15T03:38:53.866Z,35.00
2022-10-15T03:41:21.106Z,30.58
2022-10-15T03:43:48.312Z,33.03
2022-10-15T03:46:16.574Z,48.95
2022-10-15T03:48:43.824Z,42.38
2022-10-15T03:51:11.116Z,46.72
2022-10-15T03:53:38.326Z,38.90
2022-10-15T03:56:05.815Z,41.28
2022-10-15T03:58:33.075Z,42.92
2022-10-15T04:01:00.309Z,45.33
2022-10-15T04:03:27.623Z,42.30
2022-10-15T04:05:55.998Z,44.22
2022-10-15T04:08:24.017Z,42.35
2022-10-15T04:10:51.802Z,39.30
2022-10-15T04:13:19.027Z,38.65
2022-10-15T04:15:46.235Z,37.65
2022-10-15T04:18:13.634Z,34.85
2022-10-15T04:20:42.697Z,39.30
2022-10-15T04:23:10.415Z,52.30
2022-10-15T04:25:37.824Z,56.25
2022-10-15T04:28:05.084Z,58.63
2022-10-15T04:30:33.596Z,60.13
2022-10-15T04:33:00.835Z,62.60
2022-10-15T04:35:28.045Z,58.72
2022-10-15T04:37:55.234Z,59.50
2022-10-15T04:40:22.463Z,58.78
2022-10-15T04:42:49.649Z,61.60
2022-10-15T04:45:16.857Z,64.77
2022-10-15T04:47:44.179Z,56.97
2022-10-15T04:50:11.403Z,51.60
2022-10-15T04:52:38.607Z,49.05
2022-10-15T04:55:06.034Z,46.38
2022-10-15T04:57:33.263Z,46.63
2022-10-15T05:00:00.545Z,49.33
2022-10-15T05:02:28.154Z,45.78
2022-10-15T05:04:55.404Z,44.67
2022-10-15T05:07:22.896Z,47.40
2022-10-15T05:09:50.282Z,45.90
2022-10-15T05:12:17.480Z,48.88
2022-10-15T05:14:44.674Z,50.50
2022-10-15T05:17:11.894Z,51.22
2022-10-15T05:19:39.136Z,51.88
2022-10-15T05:22:06.358Z,53.97
2022-10-15T05:24:33.658Z,81.90
2022-10-15T05:27:02.969Z,49.30
2022-10-15T05:29:30.521Z,47.58
2022-10-15T05:31:57.763Z,47.20
2022-10-15T05:34:26.877Z,47.00
2022-10-15T05:36:54.074Z,53.75
2022-10-15T05:39:21.352Z,51.38
2022-10-15T05:41:49.470Z,54.03
2022-10-15T05:44:16.760Z,48.55
2022-10-15T05:46:44.085Z,52.45
2022-10-15T05:49:11.290Z,54.58
2022-10-15T05:51:38.479Z,54.35
2022-10-15T05:54:05.703Z,58.00
2022-10-15T05:56:32.903Z,56.72
2022-10-15T05:59:00.247Z,57.10
2022-10-15T06:01:27.531Z,64.32
2022-10-15T06:03:54.845Z,57.83
2022-10-15T06:06:22.888Z,59.13
2022-10-15T06:08:50.344Z,64.10
2022-10-15T06:11:17.670Z,72.43
2022-10-15T06:13:45.005Z,72.63
2022-10-15T06:16:12.457Z,64.57
2022-10-15T06:18:39.801Z,63.10
2022-10-15T06:21:07.749Z,61.55
2022-10-15T06:23:35.121Z,55.08
2022-10-15T06:26:03.278Z,68.20
2022-10-15T06:28:30.606Z,65.95
2022-10-15T06:31:01.201Z,68.78
2022-10-15T06:33:28.427Z,69.32
2022-10-15T06:35:55.764Z,64.82
2022-10-15T06:38:23.902Z,62.53
2022-10-15T06:40:51.094Z,61.50
2022-10-15T06:43:18.321Z,61.00
2022-10-15T06:45:46.036Z,63.80
2022-10-15T06:48:13.310Z,72.88
2022-10-15T06:50:40.717Z,51.83
2022-10-15T06:53:08.038Z,47.08
2022-10-15T06:55:35.348Z,47.80
2022-10-15T06:58:02.544Z,42.92
2022-10-15T07:00:29.929Z,48.63
2022-10-15T07:02:57.178Z,47.33
2022-10-15T07:05:24.365Z,44.30
2022-10-15T07:07:57.746Z,41.35
2022-10-15T07:10:25.588Z,37.90
2022-10-15T07:12:54.152Z,33.08
2022-10-15T07:15:21.425Z,28.38
2022-10-15T07:17:49.266Z,30.58
2022-10-15T07:20:20.253Z,28.73
2022-10-15T07:22:50.730Z,26.40
2022-10-15T07:25:18.031Z,24.88
2022-10-15T07:27:45.386Z,20.90
2022-10-15T07:30:12.630Z,20.83
2022-10-15T07:32:39.915Z,20.38
2022-10-15T07:35:07.326Z,25.52
2022-10-15T07:37:34.774Z,32.97
2022-10-15T07:40:01.962Z,23.85
2022-10-15T07:42:29.158Z,17.58
2022-10-15T07:44:56.455Z,23.58
2022-10-15T07:47:23.921Z,25.55
2022-10-15T07:49:51.334Z,21.05
2022-10-15T07:52:18.565Z,14.27
2022-10-15T07:54:45.780Z,14.48
2022-10-15T07:57:12.979Z,13.90
2022-10-15T07:59:40.222Z,14.50
2022-10-15T08:02:07.436Z,14.13
2022-10-15T08:04:35.180Z,15.52
2022-10-15T08:07:03.262Z,12.45
2022-10-15T08:09:31.986Z,14.40
2022-10-15T08:11:59.193Z,13.57
2022-10-15T08:14:26.417Z,13.05
2022-10-15T08:16:53.613Z,13.13
2022-10-15T08:19:20.904Z,12.20
2022-10-15T08:21:48.134Z,12.57
2022-10-15T08:24:15.341Z,11.52
2022-10-15T08:26:42.538Z,11.52
2022-10-15T08:29:10.813Z,10.88
2022-10-15T08:31:38.375Z,10.90
2022-10-15T08:34:05.581Z,12.25
2022-10-15T08:36:32.809Z,10.70
2022-10-15T08:39:00.044Z,10.23
2022-10-15T08:41:31.325Z,10.50
2022-10-15T08:43:58.707Z,9.93
2022-10-15T08:46:35.118Z,19.98
2022-10-15T08:49:02.345Z,10.95
2022-10-15T08:51:31.489Z,9.40
2022-10-15T08:53:59.235Z,9.75
2022-10-15T08:56:36.925Z,9.50
2022-10-15T08:59:13.639Z,8.90
2022-10-15T09:01:56.804Z,9.50
2022-10-15T09:04:43.260Z,9.43
2022-10-15T09:07:13.635Z,9.80
2022-10-15T09:09:45.775Z,8.75
2022-10-15T09:12:18.737Z,10.23
2022-10-15T09:14:45.935Z,9.25
2022-10-15T09:17:19.215Z,9.73
2022-10-15T09:19:46.472Z,10.23
2022-10-15T09:22:15.349Z,9.35
2022-10-15T09:24:42.579Z,8.88
2022-10-15T09:27:10.777Z,9.07
2022-10-15T09:29:40.862Z,9.93
2022-10-15T09:32:08.079Z,8.95
2022-10-15T09:34:35.301Z,8.40
2022-10-15T09:37:05.724Z,8.88
2022-10-15T09:40:02.329Z,10.43
2022-10-15T09:42:30.994Z,8.68
2022-10-15T09:45:04.450Z,8.60
2022-10-15T09:47:35.294Z,8.32
2022-10-15T09:50:03.000Z,8.93
2022-10-15T09:52:30.243Z,8.48
2022-10-15T09:54:57.475Z,7.57
2022-10-15T09:57:24.815Z,6.93
2022-10-15T10:00:01.208Z,7.22
2022-10-15T10:02:29.183Z,7.32
2022-10-15T10:04:56.829Z,7.20
2022-10-15T10:07:28.777Z,7.97
2022-10-15T10:09:56.833Z,6.85
2022-10-15T10:12:26.427Z,6.72
2022-10-15T10:14:55.177Z,7.25
2022-10-15T10:17:23.282Z,7.57
2022-10-15T10:20:09.283Z,7.30
2022-10-15T10:22:50.392Z,7.60
2022-10-15T10:25:28.921Z,6.85
2022-10-15T10:28:06.425Z,6.60
2022-10-15T10:30:34.566Z,7.40
2022-10-15T10:33:01.771Z,7.50
2022-10-15T10:35:30.539Z,7.97
2022-10-15T10:37:57.753Z,6.78
2022-10-15T10:40:35.317Z,7.03
2022-10-15T10:43:11.528Z,6.70
2022-10-15T10:45:38.871Z,6.95
2022-10-15T10:48:25.335Z,6.75
2022-10-15T10:54:14.722Z,6.70
2022-10-15T10:56:42.552Z,7.40
2022-10-15T10:59:14.763Z,7.00
2022-10-15T11:01:41.963Z,6.50
2022-10-15T11:04:18.760Z,6.80
2022-10-15T11:07:05.417Z,5.93
2022-10-15T11:09:55.256Z,6.80
2022-10-15T11:12:29.817Z,6.65
2022-10-15T11:15:17.314Z,6.80
2022-10-15T11:17:50.535Z,6.97
2022-10-15T11:20:59.821Z,6.45
2022-10-15T11:23:38.729Z,7.43
2022-10-15T11:26:24.673Z,7.15
2022-10-15T11:28:59.721Z,6.72
2022-10-15T11:31:27.547Z,6.50
2022-10-15T11:34:00.567Z,6.25
2022-10-15T11:36:44.084Z,6.60
2022-10-15T11:39:11.267Z,7.40
2022-10-15T11:41:50.687Z,6.43
2022-10-15T11:44:20.681Z,7.38
2022-10-15T11:46:47.907Z,8.00
2022-10-15T11:49:17.875Z,6.47
2022-10-15T11:52:07.153Z,6.88
2022-10-15T11:54:48.099Z,6.68
2022-10-15T11:57:19.430Z,6.30
2022-10-15T12:00:05.113Z,6.13
2022-10-15T12:02:41.113Z,6.30
2022-10-15T12:05:08.481Z,6.10
2022-10-15T12:07:39.711Z,5.60
2022-10-15T12:10:10.222Z,5.50
2022-10-15T12:12:52.375Z,6.28
2022-10-15T12:15:28.703Z,4.97
2022-10-15T12:18:03.870Z,6.45
2022-10-15T12:20:31.114Z,4.90
2022-10-15T12:22:59.462Z,4.93
2022-10-15T12:25:35.570Z,6.53
2022-10-15T12:28:02.762Z,6.47
2022-10-15T12:30:34.249Z,7.00
2022-10-15T12:33:01.854Z,7.20
2022-10-15T12:35:31.394Z,8.75
2022-10-15T12:37:58.902Z,9.20
2022-10-15T12:40:27.539Z,18.33
2022-10-15T12:43:05.473Z,5.85
2022-10-15T12:45:40.514Z,5.70
2022-10-15T12:48:14.046Z,5.85
2022-10-15T12:50:41.265Z,5.60
2022-10-15T12:53:14.617Z,8.68
2022-10-15T12:55:41.842Z,8.18
2022-10-15T12:58:27.874Z,7.35
2022-10-15T13:00:55.133Z,6.95
2022-10-15T13:03:24.105Z,7.35
2022-10-15T13:05:53.966Z,8.40
2022-10-15T13:08:31.866Z,6.60
2022-10-15T13:10:59.360Z,11.93
2022-10-15T13:13:30.452Z,8.50
2022-10-15T13:15:59.049Z,7.88
2022-10-15T13:18:26.298Z,8.35
2022-10-15T13:20:56.157Z,10.98
2022-10-15T13:23:31.217Z,10.82
2022-10-15T13:26:12.212Z,6.30
2022-10-15T13:28:41.898Z,7.85
2022-10-15T13:31:30.717Z,7.55
2022-10-15T13:34:01.794Z,8.32
2022-10-15T13:36:30.901Z,10.02
2022-10-15T13:38:59.245Z,14.55
2022-10-15T13:41:32.849Z,16.77
2022-10-15T13:44:01.132Z,14.32
2022-10-15T13:46:33.021Z,20.50
2022-10-15T13:49:01.068Z,8.13
2022-10-15T13:51:33.885Z,9.90
2022-10-15T13:54:01.363Z,8.63
2022-10-15T13:56:29.358Z,11.85
2022-10-15T13:58:56.583Z,14.18
2022-10-15T14:01:24.381Z,12.82
2022-10-15T14:03:54.885Z,14.40
2022-10-15T14:06:22.117Z,31.50
2022-10-15T14:08:50.104Z,14.15
2022-10-15T14:11:18.786Z,16.30
2022-10-15T14:13:46.315Z,9.70
2022-10-15T14:16:14.986Z,7.40
2022-10-15T14:18:52.079Z,9.63
2022-10-15T14:21:20.255Z,8.90
2022-10-15T14:23:47.602Z,6.35
2022-10-15T14:26:15.371Z,6.30
2022-10-15T14:28:42.703Z,6.60
2022-10-15T14:31:10.009Z,6.13
2022-10-15T14:33:40.536Z,10.35
2022-10-15T14:36:12.727Z,5.28
2022-10-15T14:38:40.143Z,11.80
2022-10-15T14:41:39.509Z,9.55
2022-10-15T14:44:12.883Z,10.63
2022-10-15T14:46:41.396Z,6.85
2022-10-15T14:49:37.795Z,10.65
2022-10-15T14:52:08.629Z,6.30
2022-10-15T14:54:39.342Z,5.72
2022-10-15T14:57:06.534Z,14.40
2022-10-15T14:59:34.517Z,10.90
2022-10-15T15:02:03.193Z,8.15
2022-10-15T15:04:41.057Z,5.95
2022-10-15T15:07:15.458Z,6.20
2022-10-15T15:09:42.690Z,6.55
2022-10-15T15:12:12.245Z,8.93
2022-10-15T15:14:39.430Z,9.18
2022-10-15T15:17:06.634Z,9.77
2022-10-15T15:19:33.829Z,7.63
2022-10-15T15:22:01.021Z,9.60
2022-10-15T15:24:28.279Z,10.13
2022-10-15T15:26:55.449Z,8.02
2022-10-15T15:29:22.667Z,6.28
2022-10-15T15:31:49.953Z,6.45
2022-10-15T15:34:17.150Z,19.25
2022-10-15T15:36:44.388Z,11.38
2022-10-15T15:39:11.613Z,9.00
2022-10-15T15:41:38.842Z,8.07
2022-10-15T15:44:07.457Z,11.27
2022-10-15T15:46:34.675Z,14.55
2022-10-15T15:49:02.191Z,9.65
2022-10-15T15:51:30.562Z,9.60
2022-10-15T15:53:57.847Z,8.98
2022-10-15T15:56:25.133Z,7.35
2022-10-15T15:58:52.383Z,11.88
2022-10-15T16:01:20.040Z,23.58
2022-10-15T16:03:47.448Z,9.10
2022-10-15T16:06:14.648Z,14.05
2022-10-15T16:08:41.904Z,12.95
2022-10-15T16:11:09.140Z,9.07
2022-10-15T16:13:36.350Z,8.07
2022-10-15T16:16:03.732Z,12.05
2022-10-15T16:18:30.950Z,10.63
2022-10-15T16:20:58.205Z,11.50
2022-10-15T16:23:25.448Z,11.48
2022-10-15T16:25:54.542Z,8.52
2022-10-15T16:28:21.787Z,8.73
2022-10-15T16:30:49.135Z,9.30
2022-10-15T16:33:16.395Z,8.10
2022-10-15T16:35:43.598Z,8.98
2022-10-15T16:38:10.828Z,8.48
2022-10-15T16:40:38.978Z,8.23
2022-10-15T16:43:06.173Z,9.63
2022-10-15T16:45:33.499Z,13.40
2022-10-15T16:48:00.717Z,14.73
2022-10-15T16:50:27.935Z,11.77
2022-10-15T16:52:55.176Z,10.23
2022-10-15T16:55:22.378Z,14.35
2022-10-15T16:57:49.565Z,13.80
2022-10-15T17:00:16.839Z,12.60
2022-10-15T17:02:44.031Z,12.30
2022-10-15T17:05:11.237Z,8.43
2022-10-15T17:07:38.466Z,9.02
2022-10-15T17:10:08.555Z,10.45
2022-10-15T17:12:38.136Z,6.85
2022-10-15T17:15:05.592Z,7.88
2022-10-15T17:17:32.949Z,8.85
2022-10-15T17:20:00.148Z,9.45
2022-10-15T17:22:27.661Z,8.43
2022-10-15T17:24:55.070Z,6.70
2022-10-15T17:27:22.275Z,8.00
2022-10-15T17:29:49.604Z,12.38
2022-10-15T17:32:16.804Z,16.80
2022-10-15T17:34:44.017Z,14.85
2022-10-15T17:37:11.484Z,11.35
2022-10-15T17:39:38.757Z,11.38
2022-10-15T17:42:05.955Z,9.48
2022-10-15T17:44:33.216Z,7.00
2022-10-15T17:47:00.418Z,8.52
2022-10-15T17:49:27.665Z,7.70
2022-10-15T17:51:55.161Z,8.60
2022-10-15T17:54:22.355Z,8.10
2022-10-15T17:56:49.635Z,8.43
2022-10-15T17:59:16.913Z,7.43
2022-10-15T18:02:00.553Z,8.70
2022-10-15T18:04:31.445Z,7.70
2022-10-15T18:06:58.648Z,8.45
2022-10-15T18:09:26.534Z,9.70
2022-10-15T18:11:53.853Z,9.55
2022-10-15T18:14:21.818Z,11.70
2022-10-15T18:16:49.154Z,10.55
2022-10-15T18:19:16.457Z,7.95
2022-10-15T18:21:48.497Z,10.25
2022-10-15T18:24:20.053Z,8.75
2022-10-15T18:26:47.475Z,11.45
2022-10-15T18:29:14.775Z,14.45
2022-10-15T18:31:42.022Z,13.20
2022-10-15T18:34:09.226Z,18.05
2022-10-15T18:36:37.833Z,10.98
2022-10-15T18:39:05.067Z,10.68
2022-10-15T18:41:33.825Z,11.38
2022-10-15T18:44:04.822Z,11.05
2022-10-15T18:46:32.266Z,15.07
2022-10-15T18:48:59.536Z,16.77
2022-10-15T18:51:27.282Z,15.45
2022-10-15T18:53:54.676Z,16.48
2022-10-15T18:56:21.954Z,16.58
2022-10-15T18:58:49.178Z,16.77
2022-10-15T19:01:25.421Z,18.90
2022-10-15T19:03:52.931Z,19.00
2022-10-15T19:06:23.904Z,11.68
2022-10-15T19:08:51.295Z,13.68
2022-10-15T19:11:19.419Z,12.45
2022-10-15T19:13:46.716Z,13.20
2022-10-15T19:16:14.220Z,12.50
2022-10-15T19:18:41.412Z,16.13
2022-10-15T19:21:08.650Z,18.70
2022-10-15T19:23:35.941Z,40.45
2022-10-15T19:26:03.200Z,29.65
2022-10-15T19:28:30.747Z,25.77
2022-10-15T19:30:58.569Z,20.10
2022-10-15T19:33:25.999Z,20.83
2022-10-15T19:35:53.275Z,22.45
2022-10-15T19:38:20.515Z,22.52
2022-10-15T19:40:49.546Z,22.30
2022-10-15T19:43:18.621Z,21.80
2022-10-15T19:45:46.102Z,22.10
2022-10-15T19:48:13.989Z,20.52
2022-10-15T19:50:41.706Z,19.25
2022-10-15T19:53:09.526Z,19.92
2022-10-15T19:55:36.746Z,11.68
2022-10-15T19:58:03.951Z,20.92
2022-10-15T20:00:31.182Z,19.08
2022-10-15T20:02:58.430Z,15.32
2022-10-15T20:05:25.627Z,12.57
2022-10-15T20:07:52.848Z,12.15
2022-10-15T20:10:24.863Z,12.70
2022-10-15T20:12:53.104Z,21.77
2022-10-15T20:15:20.367Z,18.85
2022-10-15T20:17:48.096Z,19.70
2022-10-15T20:20:15.514Z,20.92
2022-10-15T20:22:42.853Z,21.10
2022-10-15T20:25:11.847Z,20.75
2022-10-15T20:27:39.101Z,23.42
2022-10-15T20:30:06.576Z,22.40
2022-10-15T20:32:35.976Z,24.95
2022-10-15T20:35:03.918Z,22.40
2022-10-15T20:37:31.193Z,13.95
2022-10-15T20:39:59.987Z,27.42
2022-10-15T20:42:28.096Z,23.75
2022-10-15T20:44:55.573Z,23.25
2022-10-15T20:47:22.774Z,21.08
2022-10-15T20:49:50.272Z,22.92
2022-10-15T20:52:17.537Z,23.00
2022-10-15T20:54:44.898Z,24.92
2022-10-15T20:57:12.699Z,25.27
2022-10-15T20:59:39.912Z,25.83
2022-10-15T21:02:07.166Z,25.55
2022-10-15T21:04:34.394Z,26.95
2022-10-15T21:07:01.596Z,28.08
2022-10-15T21:09:28.835Z,32.08
2022-10-15T21:11:56.162Z,30.40
2022-10-15T21:14:23.407Z,32.28
2022-10-15T21:16:50.621Z,29.95
2022-10-15T21:19:17.978Z,30.17
2022-10-15T21:21:45.240Z,31.85
2022-10-15T21:24:13.294Z,31.08
2022-10-15T21:26:40.596Z,30.48
2022-10-15T21:29:13.248Z,32.67
2022-10-15T21:31:40.493Z,53.20
2022-10-15T21:34:07.690Z,54.75
2022-10-15T21:36:34.917Z,39.30
2022-10-15T21:39:03.013Z,35.80
2022-10-15T21:41:31.374Z,35.58
2022-10-15T21:43:58.962Z,32.35
2022-10-15T21:46:26.317Z,29.23
2022-10-15T21:48:53.798Z,34.35
2022-10-15T21:51:23.763Z,26.77
2022-10-15T21:53:51.058Z,23.63
2022-10-15T21:56:18.277Z,25.02
2022-10-15T21:58:45.592Z,26.35
2022-10-15T22:01:15.861Z,43.88
2022-10-15T22:03:44.688Z,36.42
2022-10-15T22:06:12.085Z,31.85
2022-10-15T22:08:39.366Z,35.38
2022-10-15T22:11:16.388Z,27.58
2022-10-15T22:13:44.200Z,25.77
2022-10-15T22:16:11.506Z,23.40
2022-10-15T22:18:38.796Z,19.17
2022-10-15T22:21:11.033Z,19.58
2022-10-15T22:23:38.222Z,18.65
2022-10-15T22:26:05.447Z,18.25
2022-10-15T22:28:32.700Z,19.98
2022-10-15T22:31:06.581Z,22.23
2022-10-15T22:33:34.102Z,22.00
2022-10-15T22:36:02.149Z,20.20
2022-10-15T22:38:29.474Z,17.65
2022-10-15T22:40:56.863Z,17.95
2022-10-15T22:43:24.214Z,18.67
2022-10-15T22:45:51.493Z,18.23
2022-10-15T22:48:18.730Z,22.13
2022-10-15T22:50:45.929Z,20.60
2022-10-15T22:53:13.131Z,23.05
2022-10-15T22:55:40.395Z,25.45
2022-10-15T22:58:07.590Z,25.45
2022-10-15T23:00:34.802Z,22.52
2022-10-15T23:03:02.031Z,26.30
2022-10-15T23:05:29.234Z,21.67
2022-10-15T23:07:56.446Z,18.10
2022-10-15T23:10:23.681Z,22.55
2022-10-15T23:12:50.903Z,23.63
2022-10-15T23:15:18.155Z,24.52
2022-10-15T23:17:45.388Z,26.65
2022-10-15T23:20:12.665Z,23.52
2022-10-15T23:22:39.901Z,24.17
2022-10-15T23:25:07.397Z,25.42
2022-10-15T23:27:34.586Z,22.50
2022-10-15T23:30:14.303Z,22.10
2022-10-15T23:32:48.992Z,21.70
2022-10-15T23:35:16.468Z,19.88
2022-10-15T23:37:43.663Z,20.58
2022-10-15T23:40:11.205Z,20.67
2022-10-15T23:42:38.402Z,20.30
2022-10-15T23:45:05.787Z,25.13
2022-10-15T23:47:33.010Z,23.40
2022-10-15T23:50:00.202Z,22.50
2022-10-15T23:52:27.412Z,21.17
2022-10-15T23:54:54.658Z,22.67
2022-10-15T23:57:21.856Z,21.55
2022-10-15T23:59:49.055Z,22.30
